sensor_id;sensor_type;location;lat;lon;timestamp;P1;durP1;ratioP1;P2;durP2;ratioP2
64686;SDS011;51113;53.646;-113.674;2023-08-12T00:01:51;5.72;;;1.17;;
64686;SDS011;51113;53.646;-113.674;2023-08-12T00:04:20;1.75;;;0.93;;
64686;SDS011;51113;53.646;-113.674;2023-08-12T00:06:48;1.02;;;0.80;;
64686;SDS011;51113;53.646;-113.674;2023-08-12T00:09:17;8.82;;;0.90;;
64686;SDS011;51113;53.646;-113.674;2023-08-12T00:11:46;8.80;;;1.38;;
64686;SDS011;51113;53.646;-113.674;2023-08-12T00:14:14;1.50;;;0.80;;
64686;SDS011;51113;53.646;-113.674;2023-08-12T00:16:42;7.22;;;0.90;;
64686;SDS011;51113;53.646;-113.674;2023-08-12T00:19:11;1.35;;;0.98;;
64686;SDS011;51113;53.646;-113.674;2023-08-12T00:21:41;1.05;;;0.80;;
64686;SDS011;51113;53.646;-113.674;2023-08-12T00:24:09;1.40;;;0.80;;
64686;SDS011;51113;53.646;-113.674;2023-08-12T00:26:38;4.35;;;0.98;;
64686;SDS011;51113;53.646;-113.674;2023-08-12T00:29:07;5.32;;;0.90;;
64686;SDS011;51113;53.646;-113.674;2023-08-12T00:31:36;4.65;;;1.15;;
64686;SDS011;51113;53.646;-113.674;2023-08-12T00:34:04;3.00;;;1.00;;
64686;SDS011;51113;53.646;-113.674;2023-08-12T00:36:33;11.60;;;1.20;;
64686;SDS011;51113;53.646;-113.674;2023-08-12T00:39:02;4.70;;;0.90;;
64686;SDS011;51113;53.646;-113.674;2023-08-12T00:41:31;2.53;;;0.88;;
64686;SDS011;51113;53.646;-113.674;2023-08-12T00:44:00;1.70;;;0.80;;
64686;SDS011;51113;53.646;-113.674;2023-08-12T00:46:28;2.42;;;0.80;;
64686;SDS011;51113;53.646;-113.674;2023-08-12T00:48:57;1.50;;;0.77;;
64686;SDS011;51113;53.646;-113.674;2023-08-12T00:51:26;1.08;;;0.98;;
64686;SDS011;51113;53.646;-113.674;2023-08-12T00:53:56;5.00;;;0.70;;
64686;SDS011;51113;53.646;-113.674;2023-08-12T00:56:26;0.75;;;0.63;;
64686;SDS011;51113;53.646;-113.674;2023-08-12T00:58:55;3.75;;;0.85;;
64686;SDS011;51113;53.646;-113.674;2023-08-12T01:01:24;0.75;;;0.75;;
64686;SDS011;51113;53.646;-113.674;2023-08-12T01:03:52;2.58;;;0.80;;
64686;SDS011;51113;53.646;-113.674;2023-08-12T01:06:21;2.58;;;0.80;;
64686;SDS011;51113;53.646;-113.674;2023-08-12T01:08:51;1.67;;;0.82;;
64686;SDS011;51113;53.646;-113.674;2023-08-12T01:16:35;5.78;;;0.90;;
64686;SDS011;51113;53.646;-113.674;2023-08-12T01:19:10;1.27;;;0.82;;
64686;SDS011;51113;53.646;-113.674;2023-08-12T01:21:47;1.02;;;0.70;;
64686;SDS011;51113;53.646;-113.674;2023-08-12T01:24:21;3.83;;;0.75;;
64686;SDS011;51113;53.646;-113.674;2023-08-12T01:26:50;1.08;;;0.82;;
64686;SDS011;51113;53.646;-113.674;2023-08-12T01:29:19;3.03;;;0.75;;
64686;SDS011;51113;53.646;-113.674;2023-08-12T01:31:51;6.78;;;0.90;;
64686;SDS011;51113;53.646;-113.674;2023-08-12T01:34:30;1.00;;;0.70;;
64686;SDS011;51113;53.646;-113.674;2023-08-12T01:37:11;10.30;;;0.98;;
64686;SDS011;51113;53.646;-113.674;2023-08-12T01:39:45;1.00;;;0.80;;
64686;SDS011;51113;53.646;-113.674;2023-08-12T01:42:16;2.25;;;0.80;;
64686;SDS011;51113;53.646;-113.674;2023-08-12T01:44:47;2.17;;;0.90;;
64686;SDS011;51113;53.646;-113.674;2023-08-12T01:47:17;2.45;;;0.88;;
64686;SDS011;51113;53.646;-113.674;2023-08-12T01:49:46;0.80;;;0.80;;
64686;SDS011;51113;53.646;-113.674;2023-08-12T01:52:14;6.47;;;0.98;;
64686;SDS011;51113;53.646;-113.674;2023-08-12T01:54:43;10.90;;;1.10;;
64686;SDS011;51113;53.646;-113.674;2023-08-12T01:57:12;23.80;;;1.60;;
64686;SDS011;51113;53.646;-113.674;2023-08-12T01:59:41;3.75;;;0.95;;
64686;SDS011;51113;53.646;-113.674;2023-08-12T02:02:11;4.00;;;0.88;;
64686;SDS011;51113;53.646;-113.674;2023-08-12T02:04:40;4.90;;;0.95;;
64686;SDS011;51113;53.646;-113.674;2023-08-12T02:07:10;1.20;;;0.70;;
64686;SDS011;51113;53.646;-113.674;2023-08-12T02:09:39;2.78;;;0.88;;
64686;SDS011;51113;53.646;-113.674;2023-08-12T02:12:08;8.15;;;0.93;;
64686;SDS011;51113;53.646;-113.674;2023-08-12T02:14:37;1.10;;;0.90;;
64686;SDS011;51113;53.646;-113.674;2023-08-12T02:17:05;7.75;;;0.85;;
64686;SDS011;51113;53.646;-113.674;2023-08-12T02:19:34;2.95;;;0.85;;
64686;SDS011;51113;53.646;-113.674;2023-08-12T02:22:03;6.43;;;0.90;;
64686;SDS011;51113;53.646;-113.674;2023-08-12T02:24:32;2.35;;;0.70;;
64686;SDS011;51113;53.646;-113.674;2023-08-12T02:27:01;5.75;;;1.00;;
64686;SDS011;51113;53.646;-113.674;2023-08-12T02:29:30;0.98;;;0.70;;
64686;SDS011;51113;53.646;-113.674;2023-08-12T02:31:58;1.77;;;0.90;;
64686;SDS011;51113;53.646;-113.674;2023-08-12T02:34:30;2.92;;;0.77;;
64686;SDS011;51113;53.646;-113.674;2023-08-12T02:36:58;3.40;;;0.93;;
64686;SDS011;51113;53.646;-113.674;2023-08-12T02:39:27;10.02;;;1.17;;
64686;SDS011;51113;53.646;-113.674;2023-08-12T02:41:55;2.28;;;0.80;;
64686;SDS011;51113;53.646;-113.674;2023-08-12T02:44:24;3.63;;;0.85;;
64686;SDS011;51113;53.646;-113.674;2023-08-12T02:46:52;3.00;;;0.80;;
64686;SDS011;51113;53.646;-113.674;2023-08-12T02:49:21;0.77;;;0.73;;
64686;SDS011;51113;53.646;-113.674;2023-08-12T02:51:50;2.67;;;0.90;;
64686;SDS011;51113;53.646;-113.674;2023-08-12T02:54:19;4.22;;;0.80;;
64686;SDS011;51113;53.646;-113.674;2023-08-12T02:56:49;0.80;;;0.80;;
64686;SDS011;51113;53.646;-113.674;2023-08-12T02:59:18;4.88;;;0.85;;
64686;SDS011;51113;53.646;-113.674;2023-08-12T03:01:47;2.75;;;1.17;;
64686;SDS011;51113;53.646;-113.674;2023-08-12T03:04:15;2.22;;;1.27;;
64686;SDS011;51113;53.646;-113.674;2023-08-12T03:06:44;3.28;;;1.13;;
64686;SDS011;51113;53.646;-113.674;2023-08-12T03:09:13;2.42;;;0.98;;
64686;SDS011;51113;53.646;-113.674;2023-08-12T03:11:43;2.42;;;0.90;;
64686;SDS011;51113;53.646;-113.674;2023-08-12T03:14:12;3.17;;;1.48;;
64686;SDS011;51113;53.646;-113.674;2023-08-12T03:16:40;2.05;;;1.10;;
64686;SDS011;51113;53.646;-113.674;2023-08-12T03:19:09;3.00;;;0.90;;
64686;SDS011;51113;53.646;-113.674;2023-08-12T03:21:38;1.95;;;0.80;;
64686;SDS011;51113;53.646;-113.674;2023-08-12T03:24:07;1.88;;;1.10;;
64686;SDS011;51113;53.646;-113.674;2023-08-12T03:26:35;10.32;;;0.93;;
64686;SDS011;51113;53.646;-113.674;2023-08-12T03:29:04;0.95;;;0.80;;
64686;SDS011;51113;53.646;-113.674;2023-08-12T03:31:33;4.45;;;0.93;;
64686;SDS011;51113;53.646;-113.674;2023-08-12T03:34:02;6.00;;;0.95;;
64686;SDS011;51113;53.646;-113.674;2023-08-12T03:36:30;2.75;;;0.80;;
64686;SDS011;51113;53.646;-113.674;2023-08-12T03:38:59;1.58;;;0.88;;
64686;SDS011;51113;53.646;-113.674;2023-08-12T03:41:28;1.88;;;1.00;;
64686;SDS011;51113;53.646;-113.674;2023-08-12T03:43:57;8.30;;;1.20;;
64686;SDS011;51113;53.646;-113.674;2023-08-12T03:46:25;1.45;;;0.90;;
64686;SDS011;51113;53.646;-113.674;2023-08-12T03:48:54;5.05;;;1.02;;
64686;SDS011;51113;53.646;-113.674;2023-08-12T03:51:23;10.93;;;1.25;;
64686;SDS011;51113;53.646;-113.674;2023-08-12T03:53:51;1.67;;;1.00;;
64686;SDS011;51113;53.646;-113.674;2023-08-12T03:56:20;6.00;;;0.95;;
64686;SDS011;51113;53.646;-113.674;2023-08-12T03:58:48;6.65;;;1.45;;
64686;SDS011;51113;53.646;-113.674;2023-08-12T04:01:17;2.97;;;1.35;;
64686;SDS011;51113;53.646;-113.674;2023-08-12T04:03:45;6.88;;;1.52;;
64686;SDS011;51113;53.646;-113.674;2023-08-12T04:06:14;3.53;;;1.20;;
64686;SDS011;51113;53.646;-113.674;2023-08-12T04:08:43;11.10;;;1.17;;
64686;SDS011;51113;53.646;-113.674;2023-08-12T04:11:11;7.68;;;2.15;;
64686;SDS011;51113;53.646;-113.674;2023-08-12T04:13:40;7.15;;;2.25;;
64686;SDS011;51113;53.646;-113.674;2023-08-12T04:16:09;10.07;;;2.70;;
64686;SDS011;51113;53.646;-113.674;2023-08-12T04:18:37;8.60;;;2.25;;
64686;SDS011;51113;53.646;-113.674;2023-08-12T04:21:06;15.57;;;3.17;;
64686;SDS011;51113;53.646;-113.674;2023-08-12T04:23:35;14.27;;;3.38;;
64686;SDS011;51113;53.646;-113.674;2023-08-12T04:26:04;9.60;;;2.17;;
64686;SDS011;51113;53.646;-113.674;2023-08-12T04:28:32;4.22;;;1.98;;
64686;SDS011;51113;53.646;-113.674;2023-08-12T04:31:05;6.65;;;1.50;;
64686;SDS011;51113;53.646;-113.674;2023-08-12T04:33:37;2.63;;;1.20;;
64686;SDS011;51113;53.646;-113.674;2023-08-12T04:36:06;2.25;;;1.30;;
64686;SDS011;51113;53.646;-113.674;2023-08-12T04:38:35;2.28;;;0.90;;
64686;SDS011;51113;53.646;-113.674;2023-08-12T04:41:04;7.43;;;1.13;;
64686;SDS011;51113;53.646;-113.674;2023-08-12T04:43:32;9.20;;;1.67;;
64686;SDS011;51113;53.646;-113.674;2023-08-12T04:46:01;7.00;;;1.50;;
64686;SDS011;51113;53.646;-113.674;2023-08-12T04:48:30;9.82;;;1.60;;
64686;SDS011;51113;53.646;-113.674;2023-08-12T04:50:59;4.22;;;1.25;;
64686;SDS011;51113;53.646;-113.674;2023-08-12T04:53:29;3.50;;;1.00;;
64686;SDS011;51113;53.646;-113.674;2023-08-12T04:55:58;3.85;;;1.10;;
64686;SDS011;51113;53.646;-113.674;2023-08-12T04:58:26;6.03;;;1.00;;
64686;SDS011;51113;53.646;-113.674;2023-08-12T05:00:55;2.58;;;0.90;;
64686;SDS011;51113;53.646;-113.674;2023-08-12T05:03:25;3.45;;;1.00;;
64686;SDS011;51113;53.646;-113.674;2023-08-12T05:05:53;6.88;;;1.00;;
64686;SDS011;51113;53.646;-113.674;2023-08-12T05:08:22;6.35;;;1.00;;
64686;SDS011;51113;53.646;-113.674;2023-08-12T05:10:51;1.35;;;0.90;;
64686;SDS011;51113;53.646;-113.674;2023-08-12T05:13:20;6.22;;;0.90;;
64686;SDS011;51113;53.646;-113.674;2023-08-12T05:15:48;4.53;;;1.25;;
64686;SDS011;51113;53.646;-113.674;2023-08-12T05:18:17;5.85;;;1.02;;
64686;SDS011;51113;53.646;-113.674;2023-08-12T05:20:46;2.90;;;0.90;;
64686;SDS011;51113;53.646;-113.674;2023-08-12T05:23:15;7.07;;;1.08;;
64686;SDS011;51113;53.646;-113.674;2023-08-12T05:25:44;3.35;;;0.98;;
64686;SDS011;51113;53.646;-113.674;2023-08-12T05:28:12;2.42;;;0.82;;
64686;SDS011;51113;53.646;-113.674;2023-08-12T05:30:41;0.77;;;0.70;;
64686;SDS011;51113;53.646;-113.674;2023-08-12T05:33:09;4.07;;;1.00;;
64686;SDS011;51113;53.646;-113.674;2023-08-12T05:35:38;2.40;;;1.02;;
64686;SDS011;51113;53.646;-113.674;2023-08-12T05:38:07;4.57;;;1.15;;
64686;SDS011;51113;53.646;-113.674;2023-08-12T05:40:35;8.68;;;1.38;;
64686;SDS011;51113;53.646;-113.674;2023-08-12T05:43:04;10.40;;;1.00;;
64686;SDS011;51113;53.646;-113.674;2023-08-12T05:45:32;11.25;;;1.20;;
64686;SDS011;51113;53.646;-113.674;2023-08-12T05:48:01;4.28;;;1.00;;
64686;SDS011;51113;53.646;-113.674;2023-08-12T05:50:30;8.82;;;1.15;;
64686;SDS011;51113;53.646;-113.674;2023-08-12T05:52:58;6.18;;;1.20;;
64686;SDS011;51113;53.646;-113.674;2023-08-12T05:55:27;7.07;;;1.10;;
64686;SDS011;51113;53.646;-113.674;2023-08-12T05:57:56;3.97;;;1.17;;
64686;SDS011;51113;53.646;-113.674;2023-08-12T06:00:24;3.42;;;0.95;;
64686;SDS011;51113;53.646;-113.674;2023-08-12T06:02:53;1.40;;;0.90;;
64686;SDS011;51113;53.646;-113.674;2023-08-12T06:05:22;5.38;;;1.50;;
64686;SDS011;51113;53.646;-113.674;2023-08-12T06:07:50;2.95;;;1.00;;
64686;SDS011;51113;53.646;-113.674;2023-08-12T06:10:19;2.13;;;1.00;;
64686;SDS011;51113;53.646;-113.674;2023-08-12T06:12:48;3.38;;;1.27;;
64686;SDS011;51113;53.646;-113.674;2023-08-12T06:15:16;9.02;;;1.20;;
64686;SDS011;51113;53.646;-113.674;2023-08-12T06:17:45;1.60;;;1.08;;
64686;SDS011;51113;53.646;-113.674;2023-08-12T06:20:14;1.95;;;0.80;;
64686;SDS011;51113;53.646;-113.674;2023-08-12T06:22:43;1.63;;;0.90;;
64686;SDS011;51113;53.646;-113.674;2023-08-12T06:25:11;11.48;;;1.10;;
64686;SDS011;51113;53.646;-113.674;2023-08-12T06:27:40;1.73;;;0.88;;
64686;SDS011;51113;53.646;-113.674;2023-08-12T06:30:09;8.98;;;1.00;;
64686;SDS011;51113;53.646;-113.674;2023-08-12T06:32:38;6.63;;;1.02;;
64686;SDS011;51113;53.646;-113.674;2023-08-12T06:35:07;3.08;;;0.90;;
64686;SDS011;51113;53.646;-113.674;2023-08-12T06:37:36;1.73;;;0.80;;
64686;SDS011;51113;53.646;-113.674;2023-08-12T06:40:05;4.15;;;1.13;;
64686;SDS011;51113;53.646;-113.674;2023-08-12T06:42:34;4.65;;;1.02;;
64686;SDS011;51113;53.646;-113.674;2023-08-12T06:45:03;2.03;;;0.80;;
64686;SDS011;51113;53.646;-113.674;2023-08-12T06:47:32;4.78;;;0.90;;
64686;SDS011;51113;53.646;-113.674;2023-08-12T06:50:00;4.05;;;0.85;;
64686;SDS011;51113;53.646;-113.674;2023-08-12T06:52:29;0.88;;;0.80;;
64686;SDS011;51113;53.646;-113.674;2023-08-12T06:54:58;3.88;;;1.00;;
64686;SDS011;51113;53.646;-113.674;2023-08-12T06:57:27;3.20;;;0.90;;
64686;SDS011;51113;53.646;-113.674;2023-08-12T06:59:55;1.40;;;0.80;;
64686;SDS011;51113;53.646;-113.674;2023-08-12T07:02:24;1.05;;;0.88;;
64686;SDS011;51113;53.646;-113.674;2023-08-12T07:04:52;6.07;;;1.00;;
64686;SDS011;51113;53.646;-113.674;2023-08-12T07:07:21;2.08;;;0.80;;
64686;SDS011;51113;53.646;-113.674;2023-08-12T07:09:50;7.32;;;1.00;;
64686;SDS011;51113;53.646;-113.674;2023-08-12T07:12:18;2.67;;;0.77;;
64686;SDS011;51113;53.646;-113.674;2023-08-12T07:14:47;5.03;;;0.90;;
64686;SDS011;51113;53.646;-113.674;2023-08-12T07:17:15;1.15;;;0.80;;
64686;SDS011;51113;53.646;-113.674;2023-08-12T07:19:44;3.65;;;0.90;;
64686;SDS011;51113;53.646;-113.674;2023-08-12T07:22:13;2.20;;;0.80;;
64686;SDS011;51113;53.646;-113.674;2023-08-12T07:24:42;1.63;;;1.00;;
64686;SDS011;51113;53.646;-113.674;2023-08-12T07:27:11;1.65;;;0.82;;
64686;SDS011;51113;53.646;-113.674;2023-08-12T07:29:39;2.28;;;0.90;;
64686;SDS011;51113;53.646;-113.674;2023-08-12T07:32:08;2.25;;;1.02;;
64686;SDS011;51113;53.646;-113.674;2023-08-12T07:34:37;3.45;;;0.90;;
64686;SDS011;51113;53.646;-113.674;2023-08-12T07:37:05;0.93;;;0.70;;
64686;SDS011;51113;53.646;-113.674;2023-08-12T07:39:34;1.85;;;0.90;;
64686;SDS011;51113;53.646;-113.674;2023-08-12T07:42:03;1.98;;;0.90;;
64686;SDS011;51113;53.646;-113.674;2023-08-12T07:44:31;3.83;;;0.80;;
64686;SDS011;51113;53.646;-113.674;2023-08-12T07:47:00;3.63;;;0.75;;
64686;SDS011;51113;53.646;-113.674;2023-08-12T07:49:29;3.75;;;0.80;;
64686;SDS011;51113;53.646;-113.674;2023-08-12T07:51:58;0.60;;;0.60;;
64686;SDS011;51113;53.646;-113.674;2023-08-12T07:54:26;0.60;;;0.60;;
64686;SDS011;51113;53.646;-113.674;2023-08-12T07:56:55;2.38;;;0.80;;
64686;SDS011;51113;53.646;-113.674;2023-08-12T07:59:24;5.03;;;1.17;;
64686;SDS011;51113;53.646;-113.674;2023-08-12T08:01:53;0.80;;;0.70;;
64686;SDS011;51113;53.646;-113.674;2023-08-12T08:04:22;0.85;;;0.70;;
64686;SDS011;51113;53.646;-113.674;2023-08-12T08:06:50;0.77;;;0.70;;
64686;SDS011;51113;53.646;-113.674;2023-08-12T08:09:19;6.28;;;0.80;;
64686;SDS011;51113;53.646;-113.674;2023-08-12T08:11:48;1.50;;;0.90;;
64686;SDS011;51113;53.646;-113.674;2023-08-12T08:14:16;2.90;;;0.70;;
64686;SDS011;51113;53.646;-113.674;2023-08-12T08:16:45;0.85;;;0.80;;
64686;SDS011;51113;53.646;-113.674;2023-08-12T08:19:14;4.63;;;0.98;;
64686;SDS011;51113;53.646;-113.674;2023-08-12T08:21:45;1.75;;;1.00;;
64686;SDS011;51113;53.646;-113.674;2023-08-12T08:24:14;10.15;;;1.02;;
64686;SDS011;51113;53.646;-113.674;2023-08-12T08:26:42;9.20;;;1.45;;
64686;SDS011;51113;53.646;-113.674;2023-08-12T08:29:13;3.03;;;1.27;;
64686;SDS011;51113;53.646;-113.674;2023-08-12T08:31:42;2.20;;;1.10;;
64686;SDS011;51113;53.646;-113.674;2023-08-12T08:34:10;4.18;;;1.00;;
64686;SDS011;51113;53.646;-113.674;2023-08-12T08:36:39;4.32;;;1.30;;
64686;SDS011;51113;53.646;-113.674;2023-08-12T08:39:08;3.35;;;1.17;;
64686;SDS011;51113;53.646;-113.674;2023-08-12T08:41:38;6.38;;;1.10;;
64686;SDS011;51113;53.646;-113.674;2023-08-12T08:44:08;3.72;;;1.20;;
64686;SDS011;51113;53.646;-113.674;2023-08-12T08:46:37;5.75;;;1.20;;
64686;SDS011;51113;53.646;-113.674;2023-08-12T08:49:06;4.75;;;1.20;;
64686;SDS011;51113;53.646;-113.674;2023-08-12T08:51:36;5.18;;;1.20;;
64686;SDS011;51113;53.646;-113.674;2023-08-12T08:54:04;9.68;;;1.33;;
64686;SDS011;51113;53.646;-113.674;2023-08-12T08:56:34;2.08;;;0.85;;
64686;SDS011;51113;53.646;-113.674;2023-08-12T08:59:05;1.95;;;1.20;;
64686;SDS011;51113;53.646;-113.674;2023-08-12T09:01:34;4.32;;;1.40;;
64686;SDS011;51113;53.646;-113.674;2023-08-12T09:04:04;2.35;;;1.10;;
64686;SDS011;51113;53.646;-113.674;2023-08-12T09:06:34;2.05;;;1.20;;
64686;SDS011;51113;53.646;-113.674;2023-08-12T09:09:05;5.22;;;1.25;;
64686;SDS011;51113;53.646;-113.674;2023-08-12T09:11:38;1.95;;;1.08;;
64686;SDS011;51113;53.646;-113.674;2023-08-12T09:14:08;3.65;;;1.20;;
64686;SDS011;51113;53.646;-113.674;2023-08-12T09:16:36;9.77;;;1.00;;
64686;SDS011;51113;53.646;-113.674;2023-08-12T09:19:05;4.75;;;1.27;;
64686;SDS011;51113;53.646;-113.674;2023-08-12T09:21:33;1.90;;;0.90;;
64686;SDS011;51113;53.646;-113.674;2023-08-12T09:24:03;4.53;;;1.30;;
64686;SDS011;51113;53.646;-113.674;2023-08-12T09:26:35;3.37;;;1.20;;
64686;SDS011;51113;53.646;-113.674;2023-08-12T09:29:03;2.00;;;1.00;;
64686;SDS011;51113;53.646;-113.674;2023-08-12T09:31:32;12.27;;;1.13;;
64686;SDS011;51113;53.646;-113.674;2023-08-12T09:34:04;10.75;;;1.77;;
64686;SDS011;51113;53.646;-113.674;2023-08-12T09:36:36;3.05;;;1.00;;
64686;SDS011;51113;53.646;-113.674;2023-08-12T09:39:06;3.55;;;1.13;;
64686;SDS011;51113;53.646;-113.674;2023-08-12T09:41:37;1.73;;;1.10;;
64686;SDS011;51113;53.646;-113.674;2023-08-12T09:44:07;2.97;;;1.00;;
64686;SDS011;51113;53.646;-113.674;2023-08-12T09:46:36;2.15;;;1.10;;
64686;SDS011;51113;53.646;-113.674;2023-08-12T09:49:06;2.50;;;1.00;;
64686;SDS011;51113;53.646;-113.674;2023-08-12T09:51:35;1.50;;;1.00;;
64686;SDS011;51113;53.646;-113.674;2023-08-12T09:54:04;3.63;;;0.90;;
64686;SDS011;51113;53.646;-113.674;2023-08-12T09:56:33;3.70;;;1.02;;
64686;SDS011;51113;53.646;-113.674;2023-08-12T09:59:05;1.48;;;1.10;;
64686;SDS011;51113;53.646;-113.674;2023-08-12T10:01:35;2.65;;;1.20;;
64686;SDS011;51113;53.646;-113.674;2023-08-12T10:04:05;6.90;;;1.05;;
64686;SDS011;51113;53.646;-113.674;2023-08-12T10:06:40;1.13;;;0.90;;
64686;SDS011;51113;53.646;-113.674;2023-08-12T10:09:10;2.63;;;1.00;;
64686;SDS011;51113;53.646;-113.674;2023-08-12T10:11:40;2.13;;;0.90;;
64686;SDS011;51113;53.646;-113.674;2023-08-12T10:14:12;2.03;;;1.10;;
64686;SDS011;51113;53.646;-113.674;2023-08-12T10:16:42;2.65;;;1.08;;
64686;SDS011;51113;53.646;-113.674;2023-08-12T10:19:14;3.63;;;1.30;;
64686;SDS011;51113;53.646;-113.674;2023-08-12T10:21:45;8.35;;;1.00;;
64686;SDS011;51113;53.646;-113.674;2023-08-12T10:24:16;3.38;;;0.93;;
64686;SDS011;51113;53.646;-113.674;2023-08-12T10:26:46;1.63;;;1.00;;
64686;SDS011;51113;53.646;-113.674;2023-08-12T10:29:15;3.83;;;1.20;;
64686;SDS011;51113;53.646;-113.674;2023-08-12T10:31:44;3.97;;;1.00;;
64686;SDS011;51113;53.646;-113.674;2023-08-12T10:34:21;2.00;;;1.00;;
64686;SDS011;51113;53.646;-113.674;2023-08-12T10:36:54;3.72;;;1.05;;
64686;SDS011;51113;53.646;-113.674;2023-08-12T10:39:27;1.45;;;1.00;;
64686;SDS011;51113;53.646;-113.674;2023-08-12T10:41:57;5.57;;;1.10;;
64686;SDS011;51113;53.646;-113.674;2023-08-12T10:44:26;3.95;;;1.15;;
64686;SDS011;51113;53.646;-113.674;2023-08-12T10:47:08;5.30;;;1.10;;
64686;SDS011;51113;53.646;-113.674;2023-08-12T10:49:48;5.65;;;1.05;;
64686;SDS011;51113;53.646;-113.674;2023-08-12T10:52:27;2.40;;;1.20;;
64686;SDS011;51113;53.646;-113.674;2023-08-12T10:57:52;1.98;;;0.90;;
64686;SDS011;51113;53.646;-113.674;2023-08-12T11:00:26;1.83;;;0.98;;
64686;SDS011;51113;53.646;-113.674;2023-08-12T11:02:56;2.22;;;0.98;;
64686;SDS011;51113;53.646;-113.674;2023-08-12T11:05:35;1.13;;;1.00;;
64686;SDS011;51113;53.646;-113.674;2023-08-12T11:08:05;1.73;;;0.90;;
64686;SDS011;51113;53.646;-113.674;2023-08-12T11:10:34;3.45;;;0.95;;
64686;SDS011;51113;53.646;-113.674;2023-08-12T11:13:03;5.20;;;1.23;;
64686;SDS011;51113;53.646;-113.674;2023-08-12T11:15:36;10.68;;;1.17;;
64686;SDS011;51113;53.646;-113.674;2023-08-12T11:18:10;1.40;;;1.00;;
64686;SDS011;51113;53.646;-113.674;2023-08-12T11:20:41;3.30;;;1.00;;
64686;SDS011;51113;53.646;-113.674;2023-08-12T11:23:10;2.95;;;1.10;;
64686;SDS011;51113;53.646;-113.674;2023-08-12T11:25:39;1.10;;;0.90;;
64686;SDS011;51113;53.646;-113.674;2023-08-12T11:28:11;7.60;;;1.10;;
64686;SDS011;51113;53.646;-113.674;2023-08-12T11:30:41;5.30;;;1.08;;
64686;SDS011;51113;53.646;-113.674;2023-08-12T11:33:15;1.08;;;0.90;;
64686;SDS011;51113;53.646;-113.674;2023-08-12T11:35:48;4.50;;;1.45;;
64686;SDS011;51113;53.646;-113.674;2023-08-12T11:38:17;5.22;;;1.08;;
64686;SDS011;51113;53.646;-113.674;2023-08-12T11:40:46;3.67;;;1.00;;
64686;SDS011;51113;53.646;-113.674;2023-08-12T11:43:15;2.67;;;1.10;;
64686;SDS011;51113;53.646;-113.674;2023-08-12T11:45:44;4.05;;;1.25;;
64686;SDS011;51113;53.646;-113.674;2023-08-12T11:48:12;5.82;;;1.15;;
64686;SDS011;51113;53.646;-113.674;2023-08-12T11:50:41;1.73;;;0.85;;
64686;SDS011;51113;53.646;-113.674;2023-08-12T11:53:10;2.67;;;1.00;;
64686;SDS011;51113;53.646;-113.674;2023-08-12T11:55:39;6.57;;;0.95;;
64686;SDS011;51113;53.646;-113.674;2023-08-12T11:58:08;2.47;;;1.00;;
64686;SDS011;51113;53.646;-113.674;2023-08-12T12:00:37;1.08;;;0.98;;
64686;SDS011;51113;53.646;-113.674;2023-08-12T12:03:06;1.10;;;0.90;;
64686;SDS011;51113;53.646;-113.674;2023-08-12T12:05:35;4.32;;;1.10;;
64686;SDS011;51113;53.646;-113.674;2023-08-12T12:08:04;1.58;;;1.10;;
64686;SDS011;51113;53.646;-113.674;2023-08-12T12:10:36;1.40;;;1.00;;
64686;SDS011;51113;53.646;-113.674;2023-08-12T12:13:05;1.90;;;1.30;;
64686;SDS011;51113;53.646;-113.674;2023-08-12T12:15:39;2.17;;;1.10;;
64686;SDS011;51113;53.646;-113.674;2023-08-12T12:18:11;3.65;;;1.20;;
64686;SDS011;51113;53.646;-113.674;2023-08-12T12:20:54;3.10;;;1.13;;
64686;SDS011;51113;53.646;-113.674;2023-08-12T12:23:29;8.52;;;1.40;;
64686;SDS011;51113;53.646;-113.674;2023-08-12T12:26:00;7.68;;;1.55;;
64686;SDS011;51113;53.646;-113.674;2023-08-12T12:28:30;3.28;;;1.30;;
64686;SDS011;51113;53.646;-113.674;2023-08-12T12:30:59;3.65;;;1.20;;
64686;SDS011;51113;53.646;-113.674;2023-08-12T12:33:28;2.03;;;1.15;;
64686;SDS011;51113;53.646;-113.674;2023-08-12T12:35:56;2.58;;;1.40;;
64686;SDS011;51113;53.646;-113.674;2023-08-12T12:38:28;9.05;;;1.27;;
64686;SDS011;51113;53.646;-113.674;2023-08-12T12:40:57;2.75;;;1.08;;
64686;SDS011;51113;53.646;-113.674;2023-08-12T12:43:25;3.75;;;1.50;;
64686;SDS011;51113;53.646;-113.674;2023-08-12T12:45:54;4.32;;;2.00;;
64686;SDS011;51113;53.646;-113.674;2023-08-12T12:48:23;3.95;;;1.10;;
64686;SDS011;51113;53.646;-113.674;2023-08-12T12:50:51;5.50;;;1.65;;
64686;SDS011;51113;53.646;-113.674;2023-08-12T12:53:19;5.70;;;1.30;;
64686;SDS011;51113;53.646;-113.674;2023-08-12T12:55:48;1.45;;;1.20;;
64686;SDS011;51113;53.646;-113.674;2023-08-12T12:58:17;1.00;;;0.90;;
64686;SDS011;51113;53.646;-113.674;2023-08-12T13:00:46;4.65;;;1.10;;
64686;SDS011;51113;53.646;-113.674;2023-08-12T13:03:14;2.25;;;1.10;;
64686;SDS011;51113;53.646;-113.674;2023-08-12T13:05:43;1.85;;;1.08;;
64686;SDS011;51113;53.646;-113.674;2023-08-12T13:08:11;2.45;;;1.20;;
64686;SDS011;51113;53.646;-113.674;2023-08-12T13:10:40;3.30;;;1.13;;
64686;SDS011;51113;53.646;-113.674;2023-08-12T13:13:09;3.08;;;1.00;;
64686;SDS011;51113;53.646;-113.674;2023-08-12T13:15:37;1.38;;;0.98;;
64686;SDS011;51113;53.646;-113.674;2023-08-12T13:18:06;3.60;;;1.05;;
64686;SDS011;51113;53.646;-113.674;2023-08-12T13:20:36;2.38;;;1.00;;
64686;SDS011;51113;53.646;-113.674;2023-08-12T13:23:05;3.65;;;1.00;;
64686;SDS011;51113;53.646;-113.674;2023-08-12T13:25:34;1.00;;;0.90;;
64686;SDS011;51113;53.646;-113.674;2023-08-12T13:28:03;1.40;;;1.10;;
64686;SDS011;51113;53.646;-113.674;2023-08-12T13:30:32;1.50;;;1.00;;
64686;SDS011;51113;53.646;-113.674;2023-08-12T13:33:00;1.33;;;1.00;;
64686;SDS011;51113;53.646;-113.674;2023-08-12T13:35:29;1.35;;;0.90;;
64686;SDS011;51113;53.646;-113.674;2023-08-12T13:37:57;1.77;;;0.90;;
64686;SDS011;51113;53.646;-113.674;2023-08-12T13:40:26;2.25;;;0.90;;
64686;SDS011;51113;53.646;-113.674;2023-08-12T13:42:55;1.50;;;0.98;;
64686;SDS011;51113;53.646;-113.674;2023-08-12T13:45:24;1.98;;;1.00;;
64686;SDS011;51113;53.646;-113.674;2023-08-12T13:47:52;5.07;;;1.00;;
64686;SDS011;51113;53.646;-113.674;2023-08-12T13:50:21;1.33;;;1.05;;
64686;SDS011;51113;53.646;-113.674;2023-08-12T13:52:50;1.55;;;1.05;;
64686;SDS011;51113;53.646;-113.674;2023-08-12T13:55:19;7.60;;;1.20;;
64686;SDS011;51113;53.646;-113.674;2023-08-12T13:57:47;4.65;;;1.13;;
64686;SDS011;51113;53.646;-113.674;2023-08-12T14:00:16;5.15;;;1.10;;
64686;SDS011;51113;53.646;-113.674;2023-08-12T14:02:45;2.17;;;1.13;;
64686;SDS011;51113;53.646;-113.674;2023-08-12T14:05:16;3.13;;;1.10;;
64686;SDS011;51113;53.646;-113.674;2023-08-12T14:07:45;1.42;;;1.05;;
64686;SDS011;51113;53.646;-113.674;2023-08-12T14:10:14;1.05;;;0.95;;
64686;SDS011;51113;53.646;-113.674;2023-08-12T14:12:43;11.40;;;1.42;;
64686;SDS011;51113;53.646;-113.674;2023-08-12T14:15:12;1.15;;;0.90;;
64686;SDS011;51113;53.646;-113.674;2023-08-12T14:17:41;1.40;;;0.95;;
64686;SDS011;51113;53.646;-113.674;2023-08-12T14:20:10;3.75;;;0.98;;
64686;SDS011;51113;53.646;-113.674;2023-08-12T14:22:40;3.70;;;1.23;;
64686;SDS011;51113;53.646;-113.674;2023-08-12T14:25:09;2.60;;;0.88;;
64686;SDS011;51113;53.646;-113.674;2023-08-12T14:27:39;1.20;;;0.90;;
64686;SDS011;51113;53.646;-113.674;2023-08-12T14:30:08;1.23;;;0.70;;